createdAt,value
2024-02-19T00:01:27.719Z,102421.56
2024-02-19T00:03:54.725Z,102420.75
2024-02-19T00:06:23.149Z,102421.56
2024-02-19T00:08:52.042Z,102430.63
2024-02-19T00:11:19.026Z,102432.78
2024-02-19T00:13:46.150Z,102427.78
2024-02-19T00:16:13.145Z,102427.69
2024-02-19T00:18:40.817Z,102440.50
2024-02-19T00:21:08.180Z,102441.34
2024-02-19T00:23:37.074Z,102449.88
2024-02-19T00:26:04.464Z,102450.47
2024-02-19T00:28:31.439Z,102447.53
2024-02-19T00:30:58.523Z,102448.31
2024-02-19T00:33:26.223Z,102453.94
2024-02-19T00:35:53.403Z,102451.78
2024-02-19T00:38:20.456Z,102455.63
2024-02-19T00:40:47.344Z,102445.56
2024-02-19T00:43:14.455Z,102453.31
2024-02-19T00:45:41.598Z,102456.34
2024-02-19T00:48:08.719Z,102452.50
2024-02-19T00:50:35.717Z,102450.84
2024-02-19T00:53:02.839Z,102462.44
2024-02-19T00:55:29.968Z,102459.91
2024-02-19T00:57:57.385Z,102459.59
2024-02-19T01:00:24.343Z,102458.81
2024-02-19T01:02:51.252Z,102464.31
2024-02-19T01:05:18.272Z,102462.66
2024-02-19T01:07:45.277Z,102460.00
2024-02-19T01:10:12.801Z,102466.28
2024-02-19T01:12:39.890Z,102461.41
2024-02-19T01:15:07.201Z,102466.09
2024-02-19T01:17:35.622Z,102465.56
2024-02-19T01:20:03.442Z,102464.25
2024-02-19T01:22:30.324Z,102459.56
2024-02-19T01:24:57.521Z,102465.34
2024-02-19T01:27:24.529Z,102471.38
2024-02-19T01:29:51.797Z,102470.56
2024-02-19T01:32:22.205Z,102472.50
2024-02-19T01:34:49.253Z,102468.91
2024-02-19T01:37:16.276Z,102468.63
2024-02-19T01:39:43.272Z,102462.53
2024-02-19T01:42:10.974Z,102475.44
2024-02-19T01:44:38.079Z,102480.34
2024-02-19T01:47:05.208Z,102487.16
2024-02-19T01:49:33.303Z,102483.81
2024-02-19T01:52:01.036Z,102493.91
2024-02-19T01:54:28.061Z,102482.59
2024-02-19T01:56:55.229Z,102481.19
2024-02-19T01:59:23.804Z,102485.56
2024-02-19T02:01:51.604Z,102477.00
2024-02-19T02:04:19.809Z,102479.75
2024-02-19T02:06:47.368Z,102488.53
2024-02-19T02:09:14.230Z,102475.09
2024-02-19T02:11:41.339Z,102477.31
2024-02-19T02:14:08.174Z,102475.47
2024-02-19T02:16:35.010Z,102476.91
2024-02-19T02:19:02.250Z,102478.53
2024-02-19T02:21:29.200Z,102472.22
2024-02-19T02:23:56.008Z,102480.19
2024-02-19T02:26:23.391Z,102478.53
2024-02-19T02:28:50.256Z,102475.47
2024-02-19T02:31:17.236Z,102469.97
2024-02-19T02:33:44.785Z,102465.69
2024-02-19T02:36:13.914Z,102473.59
2024-02-19T02:38:41.846Z,102461.16
2024-02-19T02:41:09.007Z,102472.53
2024-02-19T02:43:35.878Z,102462.97
2024-02-19T02:46:03.186Z,102467.94
2024-02-19T02:48:30.560Z,102478.41
2024-02-19T02:50:57.491Z,102453.03
2024-02-19T02:53:24.935Z,102464.59
2024-02-19T02:55:52.064Z,102473.06
2024-02-19T02:58:19.203Z,102465.84
2024-02-19T03:00:46.271Z,102470.44
2024-02-19T03:03:13.332Z,102467.38
2024-02-19T03:05:40.371Z,102475.84
2024-02-19T03:08:08.732Z,102466.50
2024-02-19T03:10:35.775Z,102475.22
2024-02-19T03:13:04.137Z,102469.13
2024-02-19T03:15:31.332Z,102466.09
2024-02-19T03:17:58.477Z,102468.53
2024-02-19T03:20:25.671Z,102465.50
2024-02-19T03:22:53.259Z,102467.44
2024-02-19T03:25:20.549Z,102471.50
2024-02-19T03:27:47.994Z,102469.03
2024-02-19T03:30:15.069Z,102468.44
2024-02-19T03:32:42.125Z,102463.78
2024-02-19T03:35:09.384Z,102468.16
2024-02-19T03:37:36.618Z,102460.41
2024-02-19T03:40:07.573Z,102465.31
2024-02-19T03:42:35.013Z,102459.53
2024-02-19T03:45:03.257Z,102463.09
2024-02-19T03:47:30.286Z,102456.47
2024-02-19T03:49:57.863Z,102458.09
2024-02-19T03:52:24.969Z,102461.34
2024-02-19T03:54:52.143Z,102463.00
2024-02-19T03:57:19.089Z,102462.66
2024-02-19T03:59:46.001Z,102458.81
2024-02-19T04:02:13.038Z,102459.03
2024-02-19T04:04:39.944Z,102463.91
2024-02-19T04:07:07.026Z,102460.84
2024-02-19T04:09:36.376Z,102456.19
2024-02-19T04:12:05.471Z,102448.75
2024-02-19T04:14:33.203Z,102450.06
2024-02-19T04:17:01.095Z,102454.75
2024-02-19T04:19:29.364Z,102456.09
2024-02-19T04:21:57.022Z,102459.47
2024-02-19T04:24:24.023Z,102458.03
2024-02-19T04:26:50.981Z,102461.59
2024-02-19T04:29:17.872Z,102461.59
2024-02-19T04:31:45.305Z,102457.72
2024-02-19T04:34:12.323Z,102464.88
2024-02-19T04:36:39.320Z,102471.44
2024-02-19T04:39:06.217Z,102461.31
2024-02-19T04:41:33.516Z,102462.63
2024-02-19T04:44:00.368Z,102454.91
2024-02-19T04:46:27.421Z,102453.28
2024-02-19T04:48:54.817Z,102448.88
2024-02-19T04:51:21.816Z,102456.03
2024-02-19T04:53:48.768Z,102455.22
2024-02-19T04:56:18.574Z,102455.72
2024-02-19T04:58:45.443Z,102448.28
2024-02-19T05:01:12.575Z,102453.16
2024-02-19T05:03:40.399Z,102452.34
2024-02-19T05:06:08.468Z,102450.75
2024-02-19T05:08:35.416Z,102452.97
2024-02-19T05:11:02.774Z,102454.09
2024-02-19T05:13:29.622Z,102454.72
2024-02-19T05:15:57.644Z,102451.13
2024-02-19T05:18:24.560Z,102452.53
2024-02-19T05:20:51.853Z,102452.81
2024-02-19T05:23:19.335Z,102452.53
2024-02-19T05:25:46.172Z,102448.97
2024-02-19T05:28:13.112Z,102456.63
2024-02-19T05:30:40.108Z,102445.91
2024-02-19T05:33:07.033Z,102447.84
2024-02-19T05:35:33.977Z,102445.66
2024-02-19T05:38:01.075Z,102441.53
2024-02-19T05:40:28.462Z,102449.56
2024-02-19T05:42:55.403Z,102446.00
2024-02-19T05:45:22.443Z,102444.06
2024-02-19T05:47:49.596Z,102447.31
2024-02-19T05:50:17.106Z,102453.88
2024-02-19T05:52:44.028Z,102453.28
2024-02-19T05:55:11.178Z,102453.50
2024-02-19T05:57:39.034Z,102454.81
2024-02-19T06:00:07.084Z,102445.13
2024-02-19T06:02:34.654Z,102449.19
2024-02-19T06:05:02.634Z,102454.09
2024-02-19T06:07:31.122Z,102450.22
2024-02-19T06:09:58.541Z,102446.66
2024-02-19T06:12:25.833Z,102444.13
2024-02-19T06:14:52.993Z,102447.69
2024-02-19T06:17:19.910Z,102450.13
2024-02-19T06:19:46.908Z,102433.94
2024-02-19T06:22:15.581Z,102442.69
2024-02-19T06:24:43.130Z,102427.84
2024-02-19T06:27:09.992Z,102435.75
2024-02-19T06:29:36.797Z,102429.16
2024-02-19T06:32:03.810Z,102426.09
2024-02-19T06:34:32.950Z,102423.34
2024-02-19T06:37:00.039Z,102440.16
2024-02-19T06:39:27.026Z,102440.75
2024-02-19T06:41:53.893Z,102441.66
2024-02-19T06:44:20.906Z,102441.16
2024-02-19T06:46:47.794Z,102452.97
2024-02-19T06:49:14.692Z,102437.59
2024-02-19T06:51:42.798Z,102433.53
2024-02-19T06:54:10.301Z,102437.09
2024-02-19T06:56:37.178Z,102445.22
2024-02-19T06:59:04.730Z,102442.38
2024-02-19T07:01:31.820Z,102447.56
2024-02-19T07:03:58.910Z,102443.19
2024-02-19T07:06:26.040Z,102451.44
2024-02-19T07:08:52.949Z,102448.69
2024-02-19T07:11:19.861Z,102452.59
2024-02-19T07:13:46.880Z,102458.56
2024-02-19T07:16:13.798Z,102452.47
2024-02-19T07:18:40.879Z,102442.50
2024-02-19T07:21:07.947Z,102449.59
2024-02-19T07:23:35.115Z,102451.34
2024-02-19T07:26:02.192Z,102446.97
2024-02-19T07:28:29.463Z,102443.09
2024-02-19T07:30:56.433Z,102440.03
2024-02-19T07:33:23.518Z,102439.75
2024-02-19T07:35:50.487Z,102442.78
2024-02-19T07:38:17.310Z,102439.91
2024-02-19T07:40:44.285Z,102439.63
2024-02-19T07:43:11.828Z,102430.25
2024-02-19T07:45:38.848Z,102424.44
2024-02-19T07:48:07.716Z,102428.84
2024-02-19T07:50:35.779Z,102426.28
2024-02-19T07:53:03.244Z,102442.47
2024-02-19T07:55:35.712Z,102442.34
2024-02-19T07:58:03.351Z,102441.25
2024-02-19T08:00:30.220Z,102438.97
2024-02-19T08:02:57.141Z,102444.19
2024-02-19T08:05:24.431Z,102444.06
2024-02-19T08:07:51.521Z,102446.31
2024-02-19T08:10:18.563Z,102446.41
2024-02-19T08:12:45.859Z,102444.34
2024-02-19T08:15:12.941Z,102455.44
2024-02-19T08:17:39.948Z,102447.09
2024-02-19T08:20:07.617Z,102455.00
2024-02-19T08:22:34.567Z,102453.47
2024-02-19T08:25:01.795Z,102455.47
2024-02-19T08:27:28.998Z,102441.59
2024-02-19T08:29:55.890Z,102442.78
2024-02-19T08:32:22.777Z,102450.91
2024-02-19T08:34:49.898Z,102443.03
2024-02-19T08:37:19.552Z,102435.34
2024-02-19T08:39:48.720Z,102438.47
2024-02-19T08:42:15.818Z,102442.72
2024-02-19T08:44:42.731Z,102438.38
2024-02-19T08:47:10.649Z,102441.69
2024-02-19T08:49:39.163Z,102447.38
2024-02-19T08:52:07.239Z,102438.63
2024-02-19T08:54:34.547Z,102432.41
2024-02-19T08:57:01.718Z,102443.78
2024-02-19T08:59:28.831Z,102448.44
2024-02-19T09:01:55.996Z,102445.31
2024-02-19T09:04:23.444Z,102446.19
2024-02-19T09:06:51.141Z,102444.50
2024-02-19T09:09:18.301Z,102440.44
2024-02-19T09:11:45.232Z,102444.84
2024-02-19T09:14:12.147Z,102438.69
2024-02-19T09:16:39.014Z,102441.16
2024-02-19T09:19:07.973Z,102442.63
2024-02-19T09:21:34.950Z,102439.44
2024-02-19T09:24:01.884Z,102435.88
2024-02-19T09:26:28.803Z,102440.06
2024-02-19T09:28:55.675Z,102438.41
2024-02-19T09:31:24.654Z,102434.75
2024-02-19T09:33:51.890Z,102440.75
2024-02-19T09:36:19.331Z,102447.53
2024-02-19T09:38:48.027Z,102445.75
2024-02-19T09:41:15.364Z,102449.63
2024-02-19T09:43:42.744Z,102436.84
2024-02-19T09:46:16.049Z,102441.63
2024-02-19T09:48:53.030Z,102440.97
2024-02-19T09:51:30.006Z,102441.34
2024-02-19T09:54:05.102Z,102432.28
2024-02-19T09:56:34.463Z,102444.34
2024-02-19T09:59:01.773Z,102426.53
2024-02-19T10:01:29.158Z,102427.66
2024-02-19T10:03:57.952Z,102435.47
2024-02-19T10:06:36.913Z,102434.34
2024-02-19T10:09:12.591Z,102433.06
2024-02-19T10:11:40.564Z,102431.88
2024-02-19T10:14:07.951Z,102427.81
2024-02-19T10:16:35.161Z,102430.34
2024-02-19T10:19:09.384Z,102444.41
2024-02-19T10:21:37.161Z,102437.28
2024-02-19T10:24:04.412Z,102434.38
2024-02-19T10:26:31.694Z,102437.31
2024-02-19T10:28:58.983Z,102428.06
2024-02-19T10:31:27.716Z,102424.56
2024-02-19T10:33:55.034Z,102423.44
2024-02-19T10:36:23.759Z,102428.81
2024-02-19T10:38:51.204Z,102429.47
2024-02-19T10:41:22.082Z,102426.28
2024-02-19T10:43:49.761Z,102415.25
2024-02-19T10:46:21.558Z,102412.34
2024-02-19T10:48:51.149Z,102406.00
2024-02-19T10:51:20.740Z,102418.34
2024-02-19T10:53:47.855Z,102416.41
2024-02-19T10:56:19.211Z,102414.13
2024-02-19T10:59:05.087Z,102406.97
2024-02-19T11:01:42.713Z,102408.09
2024-02-19T11:04:22.218Z,102414.47
2024-02-19T11:06:57.759Z,102402.59
2024-02-19T11:09:31.179Z,102405.34
2024-02-19T11:12:00.919Z,102398.84
2024-02-19T11:14:36.029Z,102402.91
2024-02-19T11:17:03.918Z,102400.81
2024-02-19T11:19:39.192Z,102386.34
2024-02-19T11:22:10.472Z,102395.63
2024-02-19T11:24:37.706Z,102394.81
2024-02-19T11:27:11.676Z,102383.25
2024-02-19T11:29:46.663Z,102390.06
2024-02-19T11:32:21.673Z,102389.06
2024-02-19T11:34:51.365Z,102379.00
2024-02-19T11:37:19.433Z,102370.25
2024-02-19T11:39:50.665Z,102367.94
2024-02-19T11:42:19.194Z,102361.47
2024-02-19T11:44:47.653Z,102369.28
2024-02-19T11:47:15.616Z,102346.38
2024-02-19T11:49:43.577Z,102349.50
2024-02-19T11:52:12.501Z,102349.50
2024-02-19T11:54:41.078Z,102354.00
2024-02-19T11:57:11.427Z,102350.44
2024-02-19T11:59:38.477Z,102343.16
2024-02-19T12:02:10.953Z,102337.16
2024-02-19T12:04:40.616Z,102340.41
2024-02-19T12:07:11.536Z,102338.94
2024-02-19T12:09:39.488Z,102337.97
2024-02-19T12:12:06.858Z,102346.09
2024-02-19T12:14:33.954Z,102339.59
2024-02-19T12:17:07.118Z,102334.88
2024-02-19T12:19:35.260Z,102331.66
2024-02-19T12:22:02.865Z,102331.31
2024-02-19T12:24:30.449Z,102324.19
2024-02-19T12:26:57.325Z,102324.47
2024-02-19T12:29:24.314Z,102335.34
2024-02-19T12:31:51.447Z,102333.06
2024-02-19T12:34:18.393Z,102331.94
2024-02-19T12:36:45.522Z,102333.22
2024-02-19T12:39:13.627Z,102327.22
2024-02-19T12:41:42.050Z,102326.88
2024-02-19T12:44:09.176Z,102325.09
2024-02-19T12:46:36.481Z,102321.06
2024-02-19T12:49:04.082Z,102306.63
2024-02-19T12:51:36.833Z,102322.81
2024-02-19T12:54:05.219Z,102317.78
2024-02-19T12:56:32.873Z,102319.22
2024-02-19T12:58:59.782Z,102321.09
2024-02-19T13:01:32.574Z,102317.34
2024-02-19T13:04:01.875Z,102308.41
2024-02-19T13:06:29.240Z,102318.00
2024-02-19T13:08:58.081Z,102317.50
2024-02-19T13:11:26.398Z,102311.66
2024-02-19T13:13:53.739Z,102306.78
2024-02-19T13:16:21.443Z,102304.72
2024-02-19T13:18:51.458Z,102307.16
2024-02-19T13:21:20.971Z,102298.25
2024-02-19T13:23:48.730Z,102305.50
2024-02-19T13:26:15.928Z,102301.16
2024-02-19T13:28:42.889Z,102303.91
2024-02-19T13:31:09.969Z,102302.28
2024-02-19T13:33:37.144Z,102308.56
2024-02-19T13:36:04.872Z,102299.78
2024-02-19T13:38:31.967Z,102304.38
2024-02-19T13:41:02.179Z,102301.75
2024-02-19T13:43:29.238Z,102306.47
2024-02-19T13:46:08.519Z,102300.63
2024-02-19T13:48:37.119Z,102304.66
2024-02-19T13:51:04.445Z,102296.59
2024-02-19T13:53:32.159Z,102296.91
2024-02-19T13:56:00.613Z,102295.75
2024-02-19T13:58:28.779Z,102292.69
2024-02-19T14:00:58.180Z,102305.59
2024-02-19T14:03:25.675Z,102294.56
2024-02-19T14:05:53.296Z,102289.84
2024-02-19T14:08:21.072Z,102278.03
2024-02-19T14:10:49.414Z,102289.06
2024-02-19T14:13:17.587Z,102289.91
2024-02-19T14:15:45.252Z,102289.56
2024-02-19T14:18:12.306Z,102287.63
2024-02-19T14:20:39.493Z,102288.56
2024-02-19T14:23:08.267Z,102275.75
2024-02-19T14:25:36.696Z,102274.44
2024-02-19T14:28:05.213Z,102279.44
2024-02-19T14:30:33.063Z,102279.28
2024-02-19T14:33:00.210Z,102276.53
2024-02-19T14:35:27.888Z,102281.03
2024-02-19T14:37:55.513Z,102271.00
2024-02-19T14:40:23.312Z,102272.97
2024-02-19T14:42:51.547Z,102259.22
2024-02-19T14:45:18.752Z,102268.94
2024-02-19T14:47:49.486Z,102267.47
2024-02-19T14:50:17.194Z,102264.53
2024-02-19T14:52:44.685Z,102262.59
2024-02-19T14:55:13.131Z,102265.34
2024-02-19T14:57:41.512Z,102265.34
2024-02-19T15:00:11.450Z,102263.09
2024-02-19T15:02:39.873Z,102269.09
2024-02-19T15:05:14.421Z,102271.03
2024-02-19T15:07:43.014Z,102270.03
2024-02-19T15:10:10.429Z,102272.50
2024-02-19T15:12:38.074Z,102270.38
2024-02-19T15:15:08.177Z,102271.97
2024-02-19T15:17:35.509Z,102275.38
2024-02-19T15:20:03.601Z,102271.13
2024-02-19T15:22:30.824Z,102279.19
2024-02-19T15:24:57.814Z,102279.84
2024-02-19T15:27:27.731Z,102274.97
2024-02-19T15:29:58.395Z,102279.84
2024-02-19T15:32:25.890Z,102275.59
2024-02-19T15:34:54.398Z,102280.31
2024-02-19T15:37:23.184Z,102279.50
2024-02-19T15:39:50.886Z,102279.31
2024-02-19T15:42:18.189Z,102278.50
2024-02-19T15:44:47.822Z,102282.69
2024-02-19T15:47:14.767Z,102283.69
2024-02-19T15:49:41.873Z,102280.13
2024-02-19T15:52:09.297Z,102281.56
2024-02-19T15:54:40.551Z,102281.56
2024-02-19T15:57:07.660Z,102275.88
2024-02-19T15:59:36.226Z,102278.94
2024-02-19T16:02:03.720Z,102266.31
2024-02-19T16:04:30.995Z,102259.19
2024-02-19T16:06:58.834Z,102254.16
2024-02-19T16:09:26.030Z,102247.84
2024-02-19T16:11:54.815Z,102255.78
2024-02-19T16:14:21.782Z,102252.38
2024-02-19T16:16:48.693Z,102260.94
2024-02-19T16:19:19.329Z,102258.19
2024-02-19T16:21:46.603Z,102261.25
2024-02-19T16:24:13.958Z,102263.00
2024-02-19T16:26:40.894Z,102267.19
2024-02-19T16:29:07.824Z,102268.31
2024-02-19T16:31:34.998Z,102269.75
2024-02-19T16:34:02.362Z,102268.47
2024-02-19T16:36:29.444Z,102268.25
2024-02-19T16:38:56.386Z,102272.47
2024-02-19T16:41:24.222Z,102277.16
2024-02-19T16:43:51.156Z,102288.16
2024-02-19T16:46:26.092Z,102280.53
2024-02-19T16:48:53.741Z,102283.59
2024-02-19T16:51:20.927Z,102280.03
2024-02-19T16:53:54.330Z,102287.47
2024-02-19T16:56:23.322Z,102288.41
2024-02-19T16:58:50.512Z,102288.41
2024-02-19T17:01:19.051Z,102288.72
2024-02-19T17:03:47.773Z,102296.47
2024-02-19T17:06:15.016Z,102300.34
2024-02-19T17:08:42.232Z,102305.97
2024-02-19T17:11:09.452Z,102306.59
2024-02-19T17:13:37.853Z,102297.53
2024-02-19T17:16:05.806Z,102310.34
2024-02-19T17:18:33.741Z,102308.22
2024-02-19T17:21:03.269Z,102312.59
2024-02-19T17:23:30.208Z,102320.84
2024-02-19T17:25:57.218Z,102324.22
2024-02-19T17:28:26.184Z,102333.78
2024-02-19T17:30:54.229Z,102339.59
2024-02-19T17:33:21.433Z,102340.72
2024-02-19T17:35:48.409Z,102339.69
2024-02-19T17:38:15.803Z,102343.59
2024-02-19T17:40:43.853Z,102339.41
2024-02-19T17:43:13.100Z,102346.84
2024-02-19T17:45:40.385Z,102344.81
2024-02-19T17:48:10.079Z,102346.75
2024-02-19T17:50:42.052Z,102351.94
2024-02-19T17:53:09.462Z,102353.38
2024-02-19T17:55:36.608Z,102354.81
2024-02-19T17:58:03.961Z,102352.88
2024-02-19T18:00:30.911Z,102360.31
2024-02-19T18:03:02.111Z,102350.13
2024-02-19T18:05:29.567Z,102350.25
2024-02-19T18:07:56.692Z,102354.72
2024-02-19T18:10:23.690Z,102354.22
2024-02-19T18:12:50.885Z,102354.63
2024-02-19T18:15:22.794Z,102356.84
2024-02-19T18:17:53.819Z,102363.00
2024-02-19T18:20:21.428Z,102355.47
2024-02-19T18:22:48.471Z,102368.47
2024-02-19T18:25:15.529Z,102381.91
2024-02-19T18:27:42.699Z,102386.81
2024-02-19T18:30:13.679Z,102384.25
2024-02-19T18:32:44.195Z,102384.78
2024-02-19T18:35:11.484Z,102393.31
2024-02-19T18:37:38.842Z,102392.50
2024-02-19T18:40:10.458Z,102403.31
2024-02-19T18:42:39.672Z,102397.50
2024-02-19T18:45:07.221Z,102402.69
2024-02-19T18:47:34.518Z,102396.06
2024-02-19T18:50:01.953Z,102413.69
2024-02-19T18:52:29.128Z,102401.88
2024-02-19T18:54:56.117Z,102405.75
2024-02-19T18:57:24.535Z,102407.75
2024-02-19T18:59:51.518Z,102421.59
2024-02-19T19:02:18.672Z,102413.03
2024-02-19T19:04:46.568Z,102421.50
2024-02-19T19:07:18.432Z,102416.81
2024-02-19T19:09:46.365Z,102424.22
2024-02-19T19:12:13.465Z,102415.28
2024-02-19T19:14:41.018Z,102411.81
2024-02-19T19:17:10.168Z,102416.28
2024-02-19T19:19:39.673Z,102414.44
2024-02-19T19:22:07.710Z,102414.53
2024-02-19T19:24:35.290Z,102422.50
2024-02-19T19:27:05.841Z,102421.34
2024-02-19T19:29:33.288Z,102417.19
2024-02-19T19:32:00.557Z,102419.63
2024-02-19T19:34:28.438Z,102415.03
2024-02-19T19:36:55.585Z,102418.81
2024-02-19T19:39:22.749Z,102421.13
2024-02-19T19:41:49.727Z,102425.38
2024-02-19T19:44:18.589Z,102423.53
2024-02-19T19:46:46.028Z,102436.16
2024-02-19T19:49:18.021Z,102442.25
2024-02-19T19:51:45.398Z,102439.06
2024-02-19T19:54:12.671Z,102441.31
2024-02-19T19:56:41.684Z,102442.72
2024-02-19T19:59:09.577Z,102443.63
2024-02-19T20:01:37.425Z,102450.91
2024-02-19T20:04:06.365Z,102447.44
2024-02-19T20:06:34.381Z,102450.44
2024-02-19T20:09:02.142Z,102461.81
2024-02-19T20:11:29.333Z,102462.69
2024-02-19T20:13:56.576Z,102466.03
2024-02-19T20:16:24.138Z,102475.69
2024-02-19T20:18:51.245Z,102474.34
2024-02-19T20:21:18.234Z,102478.50
2024-02-19T20:23:47.382Z,102476.56
2024-02-19T20:26:14.622Z,102470.56
2024-02-19T20:28:41.636Z,102481.03
2024-02-19T20:31:08.758Z,102481.63
2024-02-19T20:33:35.917Z,102494.00
2024-02-19T20:36:04.561Z,102495.09
2024-02-19T20:38:32.226Z,102504.16
2024-02-19T20:40:59.168Z,102503.31
2024-02-19T20:43:26.046Z,102508.81
2024-02-19T20:45:53.232Z,102516.81
2024-02-19T20:48:23.629Z,102525.63
2024-02-19T20:50:50.709Z,102516.56
2024-02-19T20:53:17.770Z,102522.97
2024-02-19T20:55:45.018Z,102530.88
2024-02-19T20:58:12.278Z,102523.47
2024-02-19T21:00:39.906Z,102529.03
2024-02-19T21:03:06.815Z,102527.38
2024-02-19T21:05:33.782Z,102532.03
2024-02-19T21:08:01.592Z,102532.34
2024-02-19T21:10:29.086Z,102532.03
2024-02-19T21:12:57.266Z,102535.59
2024-02-19T21:15:25.462Z,102533.44
2024-02-19T21:17:52.658Z,102529.09
2024-02-19T21:20:19.927Z,102540.09
2024-02-19T21:22:47.251Z,102537.94
2024-02-19T21:25:14.428Z,102542.91
2024-02-19T21:27:41.316Z,102542.69
2024-02-19T21:30:10.161Z,102543.78
2024-02-19T21:32:37.581Z,102540.25
2024-02-19T21:35:08.081Z,102548.50
2024-02-19T21:37:36.527Z,102557.84
2024-02-19T21:40:05.105Z,102540.59
2024-02-19T21:42:35.365Z,102546.66
2024-02-19T21:45:04.817Z,102542.03
2024-02-19T21:47:32.152Z,102551.38
2024-02-19T21:49:59.414Z,102545.66
2024-02-19T21:52:27.057Z,102547.91
2024-02-19T21:54:54.498Z,102555.38
2024-02-19T21:57:21.373Z,102548.81
2024-02-19T21:59:54.007Z,102553.25
2024-02-19T22:02:21.618Z,102545.31
2024-02-19T22:04:48.795Z,102550.53
2024-02-19T22:07:15.816Z,102544.56
2024-02-19T22:09:42.974Z,102552.25
2024-02-19T22:12:09.989Z,102546.53
2024-02-19T22:14:36.900Z,102551.47
2024-02-19T22:17:04.341Z,102548.25
2024-02-19T22:19:31.272Z,102560.03
2024-02-19T22:21:58.722Z,102558.75
2024-02-19T22:24:26.675Z,102565.06
2024-02-19T22:26:53.585Z,102562.38
2024-02-19T22:29:20.483Z,102556.38
2024-02-19T22:31:47.425Z,102565.69
2024-02-19T22:34:14.469Z,102560.75
2024-02-19T22:36:41.397Z,102563.50
2024-02-19T22:39:11.077Z,102570.94
2024-02-19T22:41:42.607Z,102569.31
2024-02-19T22:44:09.582Z,102570.41
2024-02-19T22:46:37.258Z,102569.63
2024-02-19T22:49:04.395Z,102578.63
2024-02-19T22:51:31.868Z,102573.47
2024-02-19T22:53:58.770Z,102564.69
2024-02-19T22:56:25.596Z,102563.84
2024-02-19T22:59:00.913Z,102558.38
2024-02-19T23:01:34.928Z,102567.47
2024-02-19T23:04:02.218Z,102568.59
2024-02-19T23:06:29.218Z,102568.84
2024-02-19T23:08:56.493Z,102564.22
2024-02-19T23:11:23.442Z,102564.47
2024-02-19T23:13:51.930Z,102554.66
2024-02-19T23:16:19.091Z,102557.69
2024-02-19T23:18:46.073Z,102551.72
2024-02-19T23:21:17.341Z,102564.56
2024-02-19T23:23:44.341Z,102558.00
2024-02-19T23:26:11.382Z,102566.50
2024-02-19T23:28:41.006Z,102584.56
2024-02-19T23:31:08.092Z,102584.06
2024-02-19T23:33:35.233Z,102587.91
2024-02-19T23:36:02.488Z,102580.78
2024-02-19T23:38:29.880Z,102577.75
2024-02-19T23:40:56.896Z,102575.03
2024-02-19T23:43:24.237Z,102573.13
2024-02-19T23:45:51.358Z,102569.56
2024-02-19T23:48:18.766Z,102582.16
2024-02-19T23:50:45.780Z,102578.59
2024-02-19T23:53:12.847Z,102578.63
2024-02-19T23:55:42.597Z,102576.97
2024-02-19T23:58:09.799Z,102583.28
